createdAt,value
2023-08-29T00:00:16.282Z,16.07
2023-08-29T00:02:42.414Z,16.05
2023-08-29T00:05:04.613Z,16.00
2023-08-29T00:07:26.322Z,16.01
2023-08-29T00:09:48.056Z,16.02
2023-08-29T00:12:09.725Z,16.02
2023-08-29T00:14:31.424Z,16.01
2023-08-29T00:16:53.136Z,15.99
2023-08-29T00:19:16.591Z,15.97
2023-08-29T00:21:38.393Z,15.96
2023-08-29T00:24:00.063Z,15.94
2023-08-29T00:26:21.731Z,15.88
2023-08-29T00:28:44.277Z,15.87
2023-08-29T00:31:06.264Z,15.83
2023-08-29T00:33:27.975Z,15.82
2023-08-29T00:35:49.641Z,15.81
2023-08-29T00:38:12.732Z,15.79
2023-08-29T00:40:34.628Z,15.77
2023-08-29T00:42:56.262Z,15.74
2023-08-29T00:45:18.036Z,15.72
2023-08-29T00:47:41.196Z,15.69
2023-08-29T00:50:03.137Z,15.65
2023-08-29T00:52:24.830Z,15.62
2023-08-29T00:54:47.412Z,15.61
2023-08-29T00:57:09.925Z,15.59
2023-08-29T00:59:32.314Z,15.58
2023-08-29T01:01:54.569Z,15.57
2023-08-29T01:04:16.671Z,15.55
2023-08-29T01:06:39.305Z,15.53
2023-08-29T01:09:02.422Z,15.52
2023-08-29T01:11:35.412Z,15.50
2023-08-29T01:14:24.032Z,15.48
2023-08-29T01:17:04.797Z,15.46
2023-08-29T01:19:27.823Z,15.45
2023-08-29T01:22:28.212Z,15.45
2023-08-29T01:25:01.573Z,15.43
2023-08-29T01:27:23.951Z,15.40
2023-08-29T01:29:47.513Z,15.40
2023-08-29T01:32:09.730Z,15.40
2023-08-29T01:34:32.849Z,15.39
2023-08-29T01:36:56.447Z,15.38
2023-08-29T01:39:18.117Z,15.36
2023-08-29T01:41:39.777Z,15.33
2023-08-29T01:44:06.946Z,15.32
2023-08-29T01:46:30.099Z,15.30
2023-08-29T01:48:52.002Z,15.27
2023-08-29T01:51:14.211Z,15.25
2023-08-29T01:53:36.029Z,15.25
2023-08-29T01:56:00.869Z,15.23
2023-08-29T01:58:23.304Z,15.21
2023-08-29T02:00:45.659Z,15.18
2023-08-29T02:03:07.453Z,15.16
2023-08-29T02:05:29.178Z,15.16
2023-08-29T02:07:51.537Z,15.13
2023-08-29T02:10:13.187Z,15.10
2023-08-29T02:12:34.914Z,15.09
2023-08-29T02:14:56.609Z,15.05
2023-08-29T02:17:18.470Z,15.03
2023-08-29T02:19:40.192Z,15.01
2023-08-29T02:22:01.871Z,15.00
2023-08-29T02:24:25.646Z,14.99
2023-08-29T02:26:47.354Z,14.99
2023-08-29T02:29:11.781Z,14.98
2023-08-29T02:31:33.443Z,14.94
2023-08-29T02:33:55.243Z,14.93
2023-08-29T02:36:16.890Z,14.92
2023-08-29T02:38:39.952Z,14.91
2023-08-29T02:41:02.423Z,14.89
2023-08-29T02:43:24.112Z,14.87
2023-08-29T02:45:45.829Z,14.84
2023-08-29T02:48:07.852Z,14.81
2023-08-29T02:50:29.761Z,14.79
2023-08-29T02:52:51.484Z,14.76
2023-08-29T02:55:13.195Z,14.73
2023-08-29T02:57:34.869Z,14.70
2023-08-29T02:59:56.763Z,14.68
2023-08-29T03:02:18.438Z,14.67
2023-08-29T03:04:40.103Z,14.66
2023-08-29T03:07:01.748Z,14.68
2023-08-29T03:09:23.658Z,14.67
2023-08-29T03:11:45.528Z,14.66
2023-08-29T03:14:07.620Z,14.65
2023-08-29T03:16:29.351Z,14.65
2023-08-29T03:18:51.438Z,14.66
2023-08-29T03:21:13.194Z,14.68
2023-08-29T03:23:36.351Z,14.69
2023-08-29T03:26:11.257Z,14.69
2023-08-29T03:28:34.993Z,14.68
2023-08-29T03:30:56.808Z,14.67
2023-08-29T03:33:18.454Z,14.66
2023-08-29T03:35:41.145Z,14.66
2023-08-29T03:38:03.612Z,14.65
2023-08-29T03:40:25.493Z,14.68
2023-08-29T03:42:48.985Z,14.72
2023-08-29T03:45:11.100Z,14.74
2023-08-29T03:47:34.873Z,14.75
2023-08-29T03:49:56.862Z,14.70
2023-08-29T03:52:28.551Z,14.66
2023-08-29T03:54:54.327Z,14.62
2023-08-29T03:57:16.018Z,14.58
2023-08-29T03:59:38.420Z,14.54
2023-08-29T04:02:00.142Z,14.54
2023-08-29T04:04:23.775Z,14.53
2023-08-29T04:06:45.704Z,14.53
2023-08-29T04:09:09.546Z,14.53
2023-08-29T04:11:31.456Z,14.52
2023-08-29T04:13:53.218Z,14.49
2023-08-29T04:16:15.409Z,14.50
2023-08-29T04:18:37.182Z,14.50
2023-08-29T04:20:59.626Z,14.50
2023-08-29T04:23:21.344Z,14.50
2023-08-29T04:25:43.070Z,14.50
2023-08-29T04:28:05.847Z,14.51
2023-08-29T04:30:27.901Z,14.52
2023-08-29T04:32:49.671Z,14.53
2023-08-29T04:35:11.825Z,14.53
2023-08-29T04:37:36.613Z,14.50
2023-08-29T04:39:58.328Z,14.49
2023-08-29T04:42:20.114Z,14.47
2023-08-29T04:44:43.764Z,14.46
2023-08-29T04:47:06.600Z,14.43
2023-08-29T04:49:29.052Z,14.42
2023-08-29T04:51:50.729Z,14.44
2023-08-29T04:54:13.089Z,14.44
2023-08-29T04:56:34.800Z,14.45
2023-08-29T04:58:56.439Z,14.46
2023-08-29T05:01:18.250Z,14.47
2023-08-29T05:03:40.638Z,14.47
2023-08-29T05:06:02.612Z,14.49
2023-08-29T05:08:25.922Z,14.49
2023-08-29T05:10:48.090Z,14.51
2023-08-29T05:13:11.375Z,14.52
2023-08-29T05:15:34.881Z,14.51
2023-08-29T05:17:56.755Z,14.52
2023-08-29T05:20:18.735Z,14.53
2023-08-29T05:22:40.504Z,14.53
2023-08-29T05:25:02.564Z,14.52
2023-08-29T05:27:24.170Z,14.54
2023-08-29T05:29:45.840Z,14.56
2023-08-29T05:32:08.227Z,14.61
2023-08-29T05:34:29.921Z,14.64
2023-08-29T05:36:54.502Z,14.68
2023-08-29T05:39:16.292Z,14.70
2023-08-29T05:41:38.045Z,14.69
2023-08-29T05:43:59.794Z,14.70
2023-08-29T05:46:21.645Z,14.70
2023-08-29T05:48:43.392Z,14.72
2023-08-29T05:51:05.091Z,14.73
2023-08-29T05:53:26.849Z,14.74
2023-08-29T05:55:48.589Z,14.76
2023-08-29T05:58:10.244Z,14.80
2023-08-29T06:00:31.983Z,14.80
2023-08-29T06:02:53.899Z,14.83
2023-08-29T06:05:15.771Z,14.83
2023-08-29T06:07:40.097Z,14.87
2023-08-29T06:10:02.155Z,14.88
2023-08-29T06:12:23.940Z,14.88
2023-08-29T06:14:45.612Z,14.88
2023-08-29T06:17:07.347Z,14.87
2023-08-29T06:19:29.133Z,14.89
2023-08-29T06:21:50.838Z,14.91
2023-08-29T06:24:12.684Z,14.97
2023-08-29T06:26:34.469Z,15.02
2023-08-29T06:28:56.352Z,15.05
2023-08-29T06:31:18.131Z,15.11
2023-08-29T06:33:41.162Z,15.17
2023-08-29T06:36:02.885Z,15.25
2023-08-29T06:38:24.677Z,15.33
2023-08-29T06:40:46.417Z,15.40
2023-08-29T06:43:08.242Z,15.48
2023-08-29T06:45:29.968Z,15.53
2023-08-29T06:47:52.674Z,15.58
2023-08-29T06:50:14.574Z,15.67
2023-08-29T06:52:36.355Z,15.74
2023-08-29T06:54:58.141Z,15.88
2023-08-29T06:57:19.849Z,16.03
2023-08-29T06:59:41.533Z,16.20
2023-08-29T07:02:03.390Z,16.36
2023-08-29T07:04:25.108Z,16.48
2023-08-29T07:07:54.209Z,16.67
2023-08-29T07:10:16.092Z,16.78
2023-08-29T07:12:38.696Z,16.87
2023-08-29T07:15:02.072Z,16.99
2023-08-29T07:17:23.842Z,17.11
2023-08-29T07:19:45.727Z,17.25
2023-08-29T07:22:21.780Z,17.36
2023-08-29T07:24:45.960Z,17.46
2023-08-29T07:27:07.663Z,17.59
2023-08-29T07:29:29.343Z,17.72
2023-08-29T07:31:50.948Z,17.82
2023-08-29T07:34:16.675Z,17.92
2023-08-29T07:36:38.851Z,18.03
2023-08-29T07:39:00.696Z,18.15
2023-08-29T07:41:22.571Z,18.32
2023-08-29T07:43:44.372Z,18.48
2023-08-29T07:46:06.221Z,18.62
2023-08-29T07:48:28.439Z,18.74
2023-08-29T07:50:50.302Z,18.83
2023-08-29T07:53:12.269Z,18.91
2023-08-29T07:55:34.036Z,19.03
2023-08-29T07:57:57.253Z,19.11
2023-08-29T08:00:19.751Z,19.20
2023-08-29T08:02:42.272Z,19.25
2023-08-29T08:05:04.760Z,19.36
2023-08-29T08:07:26.500Z,19.44
2023-08-29T08:09:48.219Z,19.52
2023-08-29T08:12:10.099Z,19.61
2023-08-29T08:14:31.955Z,19.70
2023-08-29T08:16:53.798Z,19.76
2023-08-29T08:19:15.724Z,19.77
2023-08-29T08:21:37.575Z,19.73
2023-08-29T08:23:59.348Z,19.74
2023-08-29T08:26:21.200Z,19.72
2023-08-29T08:28:44.828Z,19.71
2023-08-29T08:31:08.110Z,19.73
2023-08-29T08:33:30.144Z,19.76
2023-08-29T08:35:57.475Z,19.83
2023-08-29T08:38:19.621Z,19.88
2023-08-29T08:40:42.546Z,19.85
2023-08-29T08:43:06.580Z,19.83
2023-08-29T08:45:28.583Z,19.82
2023-08-29T08:47:51.595Z,19.83
2023-08-29T08:50:13.414Z,19.81
2023-08-29T08:52:36.029Z,19.77
2023-08-29T08:54:57.676Z,19.75
2023-08-29T08:57:19.832Z,19.76
2023-08-29T08:59:43.260Z,19.84
2023-08-29T09:02:07.097Z,19.96
2023-08-29T09:04:29.110Z,20.06
2023-08-29T09:06:51.077Z,20.14
2023-08-29T09:09:24.281Z,20.18
2023-08-29T09:11:56.896Z,20.15
2023-08-29T09:14:18.845Z,20.12
2023-08-29T09:16:40.801Z,20.15
2023-08-29T09:19:02.968Z,20.16
2023-08-29T09:21:25.849Z,20.14
2023-08-29T09:23:47.612Z,20.13
2023-08-29T09:26:13.521Z,20.12
2023-08-29T09:28:35.235Z,20.07
2023-08-29T09:31:09.445Z,20.01
2023-08-29T09:33:31.927Z,19.99
2023-08-29T09:35:53.757Z,20.04
2023-08-29T09:38:19.344Z,20.17
2023-08-29T09:40:50.302Z,20.29
2023-08-29T09:43:16.853Z,20.39
2023-08-29T09:45:39.458Z,20.53
2023-08-29T09:48:08.149Z,20.69
2023-08-29T09:50:31.940Z,20.85
2023-08-29T09:52:54.627Z,21.00
2023-08-29T09:55:20.577Z,21.16
2023-08-29T09:57:42.804Z,21.31
2023-08-29T10:00:09.825Z,21.39
2023-08-29T10:02:33.144Z,21.33
2023-08-29T10:05:10.082Z,21.26
2023-08-29T10:07:42.119Z,21.27
2023-08-29T10:10:07.394Z,21.36
2023-08-29T10:12:29.728Z,21.45
2023-08-29T10:14:54.561Z,21.55
2023-08-29T10:17:29.839Z,21.67
2023-08-29T10:19:56.179Z,21.82
2023-08-29T10:22:19.250Z,21.91
2023-08-29T10:24:43.480Z,21.95
2023-08-29T10:27:05.675Z,21.86
2023-08-29T10:29:27.542Z,21.74
2023-08-29T10:31:50.136Z,21.65
2023-08-29T10:34:15.013Z,21.58
2023-08-29T10:36:40.306Z,21.54
2023-08-29T10:39:02.493Z,21.52
2023-08-29T10:41:24.485Z,21.51
2023-08-29T10:43:46.331Z,21.48
2023-08-29T10:46:11.087Z,21.51
2023-08-29T10:48:47.867Z,21.53
2023-08-29T10:51:12.988Z,21.56
2023-08-29T10:53:40.501Z,21.57
2023-08-29T10:56:05.123Z,21.57
2023-08-29T10:58:41.946Z,21.61
2023-08-29T11:01:06.137Z,21.64
2023-08-29T11:03:52.719Z,21.66
2023-08-29T11:06:17.974Z,21.74
2023-08-29T11:08:39.877Z,21.78
2023-08-29T11:11:10.860Z,21.74
2023-08-29T11:13:32.554Z,21.74
2023-08-29T11:15:54.274Z,21.84
2023-08-29T11:18:25.433Z,21.99
2023-08-29T11:20:47.693Z,22.18
2023-08-29T11:23:12.706Z,22.33
2023-08-29T11:25:38.806Z,22.36
2023-08-29T11:28:01.280Z,22.37
2023-08-29T11:30:31.506Z,22.38
2023-08-29T11:33:05.364Z,22.41
2023-08-29T11:35:30.189Z,22.46
2023-08-29T11:37:51.962Z,22.48
2023-08-29T11:40:16.767Z,22.52
2023-08-29T11:43:26.668Z,22.54
2023-08-29T11:45:46.981Z,22.62
2023-08-29T11:48:11.198Z,22.74
2023-08-29T11:50:33.331Z,22.87
2023-08-29T11:52:55.163Z,22.99
2023-08-29T11:55:17.442Z,23.24
2023-08-29T11:57:46.337Z,23.41
2023-08-29T12:00:09.276Z,23.55
2023-08-29T12:02:32.103Z,23.67
2023-08-29T12:04:57.269Z,23.69
2023-08-29T12:07:19.737Z,23.84
2023-08-29T12:09:44.144Z,23.90
2023-08-29T12:12:09.597Z,24.04
2023-08-29T12:14:31.454Z,24.13
2023-08-29T12:16:55.072Z,24.14
2023-08-29T12:19:18.136Z,24.08
2023-08-29T12:21:40.027Z,24.13
2023-08-29T12:24:12.729Z,24.24
2023-08-29T12:26:34.597Z,24.40
2023-08-29T12:28:56.293Z,24.55
2023-08-29T12:31:18.300Z,24.55
2023-08-29T12:33:40.061Z,24.41
2023-08-29T12:36:04.415Z,24.29
2023-08-29T12:38:27.798Z,24.24
2023-08-29T12:40:50.099Z,24.22
2023-08-29T12:43:13.929Z,24.10
2023-08-29T12:45:48.496Z,23.94
2023-08-29T12:48:15.640Z,23.80
2023-08-29T12:50:37.519Z,23.69
2023-08-29T12:52:59.417Z,23.63
2023-08-29T12:55:21.448Z,23.62
2023-08-29T12:57:44.296Z,23.58
2023-08-29T13:00:08.908Z,23.51
2023-08-29T13:02:30.886Z,23.46
2023-08-29T13:04:53.020Z,23.38
2023-08-29T13:07:14.837Z,23.34
2023-08-29T13:09:40.064Z,23.28
2023-08-29T13:12:02.103Z,23.24
2023-08-29T13:14:26.760Z,23.21
2023-08-29T13:16:50.654Z,23.18
2023-08-29T13:19:12.802Z,23.13
2023-08-29T13:21:35.508Z,23.11
2023-08-29T13:23:57.424Z,23.14
2023-08-29T13:26:20.845Z,23.14
2023-08-29T13:28:43.128Z,23.08
2023-08-29T13:31:06.343Z,23.01
2023-08-29T13:33:28.223Z,22.93
2023-08-29T13:35:50.603Z,22.90
2023-08-29T13:38:12.910Z,22.87
2023-08-29T13:40:36.069Z,22.89
2023-08-29T13:42:58.281Z,22.91
2023-08-29T13:45:20.370Z,22.95
2023-08-29T13:47:42.610Z,23.02
2023-08-29T13:50:05.694Z,23.16
2023-08-29T13:52:27.684Z,23.39
2023-08-29T13:54:49.515Z,23.70
2023-08-29T13:57:11.277Z,23.87
2023-08-29T13:59:33.124Z,24.11
2023-08-29T14:01:54.881Z,24.28
2023-08-29T14:04:16.677Z,24.48
2023-08-29T14:06:38.442Z,24.65
2023-08-29T14:09:00.184Z,24.79
2023-08-29T14:11:22.110Z,24.86
2023-08-29T14:13:44.181Z,24.93
2023-08-29T14:16:06.088Z,24.97
2023-08-29T14:18:28.208Z,25.02
2023-08-29T14:20:50.868Z,25.05
2023-08-29T14:23:12.579Z,24.96
2023-08-29T14:25:39.844Z,24.85
2023-08-29T14:28:02.796Z,24.86
2023-08-29T14:30:24.883Z,24.91
2023-08-29T14:32:46.695Z,24.70
2023-08-29T14:35:09.231Z,24.46
2023-08-29T14:37:31.176Z,24.23
2023-08-29T14:39:53.047Z,24.04
2023-08-29T14:42:14.957Z,23.87
2023-08-29T14:44:36.953Z,23.71
2023-08-29T14:46:58.820Z,23.59
2023-08-29T14:49:20.723Z,23.45
2023-08-29T14:51:42.620Z,23.44
2023-08-29T14:54:04.728Z,23.55
2023-08-29T14:56:26.944Z,23.65
2023-08-29T14:58:48.762Z,23.78
2023-08-29T15:01:11.081Z,23.86
2023-08-29T15:03:33.094Z,23.81
2023-08-29T15:05:57.459Z,23.63
2023-08-29T15:08:19.365Z,23.46
2023-08-29T15:10:41.133Z,23.36
2023-08-29T15:13:04.092Z,23.28
2023-08-29T15:15:26.198Z,23.20
2023-08-29T15:17:48.015Z,23.11
2023-08-29T15:20:11.143Z,23.03
2023-08-29T15:22:33.146Z,22.98
2023-08-29T15:24:55.008Z,22.90
2023-08-29T15:27:16.821Z,22.79
2023-08-29T15:29:38.663Z,22.69
2023-08-29T15:32:00.939Z,22.58
2023-08-29T15:34:23.070Z,22.47
2023-08-29T15:36:44.929Z,22.32
2023-08-29T15:39:06.748Z,22.12
2023-08-29T15:41:28.450Z,21.96
2023-08-29T15:43:50.373Z,21.84
2023-08-29T15:46:12.300Z,21.72
2023-08-29T15:48:35.163Z,21.62
2023-08-29T15:50:56.989Z,21.48
2023-08-29T15:53:18.930Z,21.36
2023-08-29T15:55:42.331Z,21.23
2023-08-29T15:58:07.811Z,21.08
2023-08-29T16:00:30.914Z,20.93
2023-08-29T16:02:55.022Z,20.86
2023-08-29T16:05:17.120Z,20.83
2023-08-29T16:07:39.253Z,20.71
2023-08-29T16:10:01.776Z,20.63
2023-08-29T16:12:23.481Z,20.55
2023-08-29T16:14:46.072Z,20.49
2023-08-29T16:17:07.942Z,20.45
2023-08-29T16:19:29.736Z,20.44
2023-08-29T16:21:51.504Z,20.45
2023-08-29T16:24:13.259Z,20.42
2023-08-29T16:26:35.087Z,20.41
2023-08-29T16:28:57.181Z,20.42
2023-08-29T16:31:19.008Z,20.43
2023-08-29T16:33:40.909Z,20.42
2023-08-29T16:36:04.675Z,20.41
2023-08-29T16:38:26.493Z,20.44
2023-08-29T16:40:48.494Z,20.48
2023-08-29T16:43:10.284Z,20.51
2023-08-29T16:45:35.711Z,20.49
2023-08-29T16:47:57.599Z,20.46
2023-08-29T16:50:19.664Z,20.42
2023-08-29T16:52:41.666Z,20.39
2023-08-29T16:55:04.199Z,20.37
2023-08-29T16:57:26.200Z,20.34
2023-08-29T17:00:03.717Z,20.32
2023-08-29T17:02:26.621Z,20.33
2023-08-29T17:04:48.551Z,20.38
2023-08-29T17:07:11.439Z,20.39
2023-08-29T17:09:33.226Z,20.38
2023-08-29T17:11:54.965Z,20.38
2023-08-29T17:14:16.761Z,20.34
2023-08-29T17:16:38.629Z,20.32
2023-08-29T17:19:00.492Z,20.31
2023-08-29T17:21:22.412Z,20.29
2023-08-29T17:23:44.152Z,20.30
2023-08-29T17:26:06.355Z,20.32
2023-08-29T17:28:28.096Z,20.33
2023-08-29T17:30:50.276Z,20.32
2023-08-29T17:33:11.992Z,20.33
2023-08-29T17:35:33.712Z,20.35
2023-08-29T17:37:55.321Z,20.37
2023-08-29T17:40:17.327Z,20.36
2023-08-29T17:42:43.746Z,20.34
2023-08-29T17:45:10.830Z,20.33
2023-08-29T17:47:35.744Z,20.30
2023-08-29T17:49:57.612Z,20.27
2023-08-29T17:52:19.346Z,20.23
2023-08-29T17:54:41.049Z,20.17
2023-08-29T17:57:03.115Z,20.13
2023-08-29T17:59:24.915Z,20.09
2023-08-29T18:01:46.738Z,20.03
2023-08-29T18:04:09.486Z,19.97
2023-08-29T18:06:31.339Z,19.92
2023-08-29T18:08:55.073Z,19.85
2023-08-29T18:11:18.256Z,19.79
2023-08-29T18:13:40.114Z,19.73
2023-08-29T18:16:06.159Z,19.65
2023-08-29T18:18:30.046Z,19.58
2023-08-29T18:20:59.385Z,19.52
2023-08-29T18:23:21.784Z,19.46
2023-08-29T18:25:43.467Z,19.41
2023-08-29T18:28:06.201Z,19.38
2023-08-29T18:30:28.141Z,19.32
2023-08-29T18:32:50.195Z,19.29
2023-08-29T18:35:12.079Z,19.25
2023-08-29T18:37:33.821Z,19.23
2023-08-29T18:39:57.374Z,19.20
2023-08-29T18:42:19.045Z,19.18
2023-08-29T18:44:42.081Z,19.16
2023-08-29T18:47:05.264Z,19.17
2023-08-29T18:49:26.904Z,19.16
2023-08-29T18:51:48.596Z,19.15
2023-08-29T18:54:10.297Z,19.13
2023-08-29T18:56:31.944Z,19.11
2023-08-29T18:58:53.638Z,19.08
2023-08-29T19:01:15.388Z,19.07
2023-08-29T19:03:38.404Z,19.06
2023-08-29T19:06:00.340Z,19.03
2023-08-29T19:08:22.889Z,19.01
2023-08-29T19:10:46.631Z,18.98
2023-08-29T19:13:08.331Z,18.96
2023-08-29T19:15:30.422Z,18.94
2023-08-29T19:17:52.116Z,18.87
2023-08-29T19:20:13.832Z,18.83
2023-08-29T19:22:35.495Z,18.77
2023-08-29T19:24:57.344Z,18.75
2023-08-29T19:27:23.754Z,18.71
2023-08-29T19:29:49.090Z,18.69
2023-08-29T19:32:11.034Z,18.63
2023-08-29T19:34:32.802Z,18.57
2023-08-29T19:36:54.462Z,18.53
2023-08-29T19:39:17.531Z,18.48
2023-08-29T19:41:39.440Z,18.44
2023-08-29T19:44:01.211Z,18.40
2023-08-29T19:46:22.901Z,18.37
2023-08-29T19:48:44.758Z,18.34
2023-08-29T19:51:06.922Z,18.27
2023-08-29T19:53:28.857Z,18.20
2023-08-29T19:55:54.776Z,18.15
2023-08-29T19:58:17.033Z,18.10
2023-08-29T20:00:39.146Z,18.05
2023-08-29T20:03:02.417Z,18.03
2023-08-29T20:05:25.100Z,17.99
2023-08-29T20:07:47.233Z,17.95
2023-08-29T20:10:09.625Z,17.92
2023-08-29T20:12:31.345Z,17.88
2023-08-29T20:14:53.131Z,17.84
2023-08-29T20:17:14.896Z,17.78
2023-08-29T20:19:37.396Z,17.71
2023-08-29T20:21:59.256Z,17.67
2023-08-29T20:24:24.367Z,17.63
2023-08-29T20:26:46.368Z,17.58
2023-08-29T20:29:09.092Z,17.51
2023-08-29T20:31:32.175Z,17.46
2023-08-29T20:33:54.309Z,17.41
2023-08-29T20:36:16.907Z,17.37
2023-08-29T20:38:38.689Z,17.32
2023-08-29T20:41:00.519Z,17.29
2023-08-29T20:43:22.298Z,17.25
2023-08-29T20:45:44.039Z,17.21
2023-08-29T20:48:06.438Z,17.16
2023-08-29T20:50:28.566Z,17.11
2023-08-29T20:52:50.318Z,17.06
2023-08-29T20:55:12.665Z,17.02
2023-08-29T20:57:34.498Z,16.96
2023-08-29T20:59:56.475Z,16.91
2023-08-29T21:02:18.236Z,16.85
2023-08-29T21:04:40.031Z,16.78
2023-08-29T21:07:02.030Z,16.73
2023-08-29T21:09:24.654Z,16.63
2023-08-29T21:11:48.813Z,16.55
2023-08-29T21:14:11.861Z,16.45
2023-08-29T21:16:33.787Z,16.39
2023-08-29T21:18:55.660Z,16.32
2023-08-29T21:21:19.644Z,16.24
2023-08-29T21:23:42.012Z,16.16
2023-08-29T21:26:05.124Z,16.09
2023-08-29T21:28:28.533Z,16.03
2023-08-29T21:30:52.845Z,15.97
2023-08-29T21:33:14.892Z,15.91
2023-08-29T21:35:47.985Z,15.87
2023-08-29T21:38:12.199Z,15.81
2023-08-29T21:40:38.199Z,15.76
2023-08-29T21:42:59.833Z,15.68
2023-08-29T21:45:22.353Z,15.64
2023-08-29T21:47:45.690Z,15.58
2023-08-29T21:50:08.027Z,15.55
2023-08-29T21:52:29.745Z,15.52
2023-08-29T21:54:51.583Z,15.47
2023-08-29T21:57:13.342Z,15.44
2023-08-29T21:59:35.159Z,15.43
2023-08-29T22:01:56.878Z,15.43
2023-08-29T22:04:18.619Z,15.43
2023-08-29T22:06:40.297Z,15.45
2023-08-29T22:09:02.003Z,15.47
2023-08-29T22:11:24.318Z,15.49
2023-08-29T22:13:46.236Z,15.50
2023-08-29T22:16:08.416Z,15.52
2023-08-29T22:18:30.459Z,15.55
2023-08-29T22:20:52.194Z,15.57
2023-08-29T22:23:14.137Z,15.59
2023-08-29T22:25:36.500Z,15.63
2023-08-29T22:27:58.307Z,15.66
2023-08-29T22:30:20.123Z,15.70
2023-08-29T22:32:43.738Z,15.73
2023-08-29T22:35:06.389Z,15.77
2023-08-29T22:37:28.169Z,15.80
2023-08-29T22:39:50.613Z,15.81
2023-08-29T22:42:12.324Z,15.84
2023-08-29T22:44:34.472Z,15.84
2023-08-29T22:46:56.443Z,15.86
2023-08-29T22:49:18.840Z,15.85
2023-08-29T22:51:40.527Z,15.84
2023-08-29T22:54:02.394Z,15.82
2023-08-29T22:56:25.700Z,15.83
2023-08-29T22:58:47.491Z,15.83
2023-08-29T23:01:09.293Z,15.83
2023-08-29T23:03:31.176Z,15.86
2023-08-29T23:05:52.934Z,15.86
2023-08-29T23:08:14.958Z,15.88
2023-08-29T23:10:37.952Z,15.88
2023-08-29T23:12:59.660Z,15.85
2023-08-29T23:15:21.321Z,15.84
2023-08-29T23:17:43.366Z,15.83
2023-08-29T23:20:09.015Z,15.81
2023-08-29T23:22:30.831Z,15.80
2023-08-29T23:24:52.445Z,15.80
2023-08-29T23:27:14.257Z,15.78
2023-08-29T23:29:38.854Z,15.76
2023-08-29T23:32:00.416Z,15.75
2023-08-29T23:34:22.178Z,15.69
2023-08-29T23:36:44.235Z,15.67
2023-08-29T23:39:08.216Z,15.64
2023-08-29T23:41:30.383Z,15.59
2023-08-29T23:43:52.289Z,15.54
2023-08-29T23:46:14.264Z,15.50
2023-08-29T23:48:36.049Z,15.47
2023-08-29T23:50:57.815Z,15.46
2023-08-29T23:53:19.571Z,15.43
2023-08-29T23:55:41.360Z,15.39
2023-08-29T23:58:03.228Z,15.35
